createdAt,value
2018-06-28T00:00:19.393Z,4.50
2018-06-28T00:02:47.432Z,4.80
2018-06-28T00:05:15.724Z,4.60
2018-06-28T00:07:44.037Z,4.80
2018-06-28T00:10:12.356Z,4.27
2018-06-28T00:12:40.683Z,4.83
2018-06-28T00:15:08.955Z,4.90
2018-06-28T00:17:37.264Z,4.43
2018-06-28T00:20:05.613Z,4.70
2018-06-28T00:22:33.951Z,5.57
2018-06-28T00:25:02.240Z,5.17
2018-06-28T00:27:30.695Z,5.10
2018-06-28T00:29:58.974Z,5.47
2018-06-28T00:32:27.262Z,5.13
2018-06-28T00:34:55.552Z,5.73
2018-06-28T00:37:23.880Z,5.73
2018-06-28T00:39:52.143Z,5.40
2018-06-28T00:42:20.456Z,5.20
2018-06-28T00:44:48.720Z,5.67
2018-06-28T00:47:17.020Z,5.60
2018-06-28T00:49:45.441Z,6.30
2018-06-28T00:52:13.763Z,6.20
2018-06-28T00:54:41.852Z,6.20
2018-06-28T00:57:10.148Z,5.67
2018-06-28T00:59:38.443Z,6.40
2018-06-28T01:02:06.820Z,5.77
2018-06-28T01:04:35.892Z,5.80
2018-06-28T01:07:04.211Z,6.27
2018-06-28T01:09:32.476Z,6.70
2018-06-28T01:12:00.817Z,7.77
2018-06-28T01:14:29.104Z,6.50
2018-06-28T01:16:57.444Z,7.07
2018-06-28T01:19:25.727Z,7.00
2018-06-28T01:21:53.778Z,6.93
2018-06-28T01:24:22.052Z,6.70
2018-06-28T01:26:50.371Z,6.40
2018-06-28T01:29:18.669Z,8.00
2018-06-28T01:31:46.979Z,7.03
2018-06-28T01:34:15.360Z,8.27
2018-06-28T01:36:43.657Z,8.50
2018-06-28T01:39:12.423Z,7.93
2018-06-28T01:41:52.631Z,8.60
2018-06-28T01:44:20.944Z,9.20
2018-06-28T01:46:49.265Z,9.50
2018-06-28T01:49:17.579Z,10.20
2018-06-28T01:51:45.858Z,9.90
2018-06-28T01:54:14.175Z,9.93
2018-06-28T01:56:42.476Z,10.00
2018-06-28T01:59:10.814Z,9.37
2018-06-28T02:01:39.103Z,9.97
2018-06-28T02:04:07.400Z,9.87
2018-06-28T02:06:35.660Z,9.03
2018-06-28T02:09:05.982Z,10.50
2018-06-28T02:11:34.040Z,9.67
2018-06-28T02:14:02.411Z,8.93
2018-06-28T02:16:30.684Z,9.47
2018-06-28T02:18:58.986Z,10.70
2018-06-28T02:21:27.259Z,10.33
2018-06-28T02:23:55.547Z,10.63
2018-06-28T02:26:23.900Z,12.47
2018-06-28T02:28:52.206Z,11.00
2018-06-28T02:31:20.508Z,12.53
2018-06-28T02:33:48.775Z,11.37
2018-06-28T02:36:17.106Z,12.13
2018-06-28T02:41:28.422Z,11.20
2018-06-28T02:43:56.743Z,11.90
2018-06-28T02:46:25.059Z,12.80
2018-06-28T02:48:53.409Z,11.80
2018-06-28T02:51:21.756Z,11.03
2018-06-28T02:53:50.139Z,12.17
2018-06-28T02:56:18.465Z,11.30
2018-06-28T02:58:46.837Z,12.50
2018-06-28T03:01:15.222Z,11.40
2018-06-28T03:03:43.559Z,10.50
2018-06-28T03:06:11.888Z,12.13
2018-06-28T03:08:40.170Z,12.60
2018-06-28T03:11:08.487Z,12.40
2018-06-28T03:13:36.849Z,12.43
2018-06-28T03:16:05.145Z,12.67
2018-06-28T03:18:33.436Z,12.03
2018-06-28T03:21:01.735Z,12.30
2018-06-28T03:23:30.057Z,13.03
2018-06-28T03:25:58.421Z,11.57
2018-06-28T03:28:26.700Z,12.40
2018-06-28T03:30:55.210Z,12.00
2018-06-28T03:33:23.488Z,12.30
2018-06-28T03:35:51.822Z,13.23
2018-06-28T03:38:20.391Z,11.70
2018-06-28T03:40:48.740Z,10.10
2018-06-28T03:43:17.001Z,10.10
2018-06-28T03:45:45.333Z,11.00
2018-06-28T03:48:13.628Z,10.20
2018-06-28T03:50:41.919Z,10.33
2018-06-28T03:53:10.227Z,9.80
2018-06-28T03:55:38.516Z,9.57
2018-06-28T03:58:06.820Z,9.60
2018-06-28T04:00:35.124Z,8.90
2018-06-28T04:03:03.439Z,10.40
2018-06-28T04:05:31.698Z,9.60
2018-06-28T04:08:00.011Z,9.30
2018-06-28T04:10:28.492Z,8.97
2018-06-28T04:12:56.823Z,9.20
2018-06-28T04:15:25.108Z,9.20
2018-06-28T04:17:53.419Z,9.10
2018-06-28T04:20:21.731Z,8.17
2018-06-28T04:22:50.061Z,9.40
2018-06-28T04:25:18.347Z,9.83
2018-06-28T04:27:46.670Z,9.37
2018-06-28T04:30:14.982Z,9.90
2018-06-28T04:32:43.307Z,7.97
2018-06-28T04:35:11.606Z,9.20
2018-06-28T04:37:42.007Z,7.87
2018-06-28T04:40:10.314Z,8.67
2018-06-28T04:42:40.750Z,8.70
2018-06-28T04:45:09.040Z,7.20
2018-06-28T04:47:37.345Z,7.90
2018-06-28T04:50:05.695Z,6.90
2018-06-28T04:52:34.047Z,7.50
2018-06-28T04:55:02.701Z,7.47
2018-06-28T04:57:30.999Z,7.20
2018-06-28T04:59:59.339Z,7.60
2018-06-28T05:02:27.642Z,6.87
2018-06-28T05:04:55.915Z,6.73
2018-06-28T05:07:30.212Z,6.63
2018-06-28T05:09:58.512Z,7.50
2018-06-28T05:12:26.803Z,7.37
2018-06-28T05:14:55.123Z,7.30
2018-06-28T05:17:23.446Z,7.17
2018-06-28T05:19:51.752Z,6.03
2018-06-28T05:22:19.799Z,6.60
2018-06-28T05:24:48.112Z,7.00
2018-06-28T05:27:16.383Z,6.37
2018-06-28T05:29:44.687Z,6.50
2018-06-28T05:32:12.960Z,5.63
2018-06-28T05:34:41.322Z,5.80
2018-06-28T05:37:09.578Z,6.10
2018-06-28T05:39:37.888Z,5.50
2018-06-28T05:42:06.164Z,5.57
2018-06-28T05:44:34.476Z,5.87
2018-06-28T05:47:02.831Z,5.93
2018-06-28T05:49:31.136Z,5.30
2018-06-28T05:51:59.415Z,5.33
2018-06-28T05:54:27.723Z,4.63
2018-06-28T05:56:55.988Z,4.40
2018-06-28T05:59:24.324Z,5.03
2018-06-28T06:01:53.055Z,4.80
2018-06-28T06:04:21.387Z,4.73
2018-06-28T06:06:49.735Z,4.60
2018-06-28T06:09:18.053Z,4.30
2018-06-28T06:11:46.331Z,3.80
2018-06-28T06:14:14.415Z,3.60
2018-06-28T06:16:42.749Z,5.10
2018-06-28T06:19:11.132Z,4.27
2018-06-28T06:21:39.454Z,3.60
2018-06-28T06:24:07.778Z,4.10
2018-06-28T06:26:36.073Z,3.87
2018-06-28T06:29:04.450Z,4.27
2018-06-28T06:31:32.495Z,4.40
2018-06-28T06:34:00.776Z,4.27
2018-06-28T06:36:29.091Z,4.20
2018-06-28T06:38:57.421Z,4.77
2018-06-28T06:41:25.703Z,4.40
2018-06-28T06:43:53.991Z,4.10
2018-06-28T06:46:22.305Z,4.30
2018-06-28T06:48:50.780Z,4.10
2018-06-28T06:51:18.943Z,4.00
2018-06-28T06:53:47.218Z,5.33
2018-06-28T06:56:15.996Z,4.20
2018-06-28T06:58:44.614Z,4.13
2018-06-28T07:01:13.195Z,3.67
2018-06-28T07:03:41.756Z,3.63
2018-06-28T07:06:10.247Z,4.20
2018-06-28T07:08:38.583Z,3.60
2018-06-28T07:11:07.096Z,4.00
2018-06-28T07:13:35.616Z,3.50
2018-06-28T07:16:04.130Z,4.40
2018-06-28T07:18:32.238Z,3.70
2018-06-28T07:21:00.671Z,3.90
2018-06-28T07:23:29.020Z,3.03
2018-06-28T07:25:57.440Z,4.70
2018-06-28T07:28:25.844Z,3.00
2018-06-28T07:30:54.086Z,3.97
2018-06-28T07:33:22.375Z,3.77
2018-06-28T07:35:50.920Z,3.73
2018-06-28T07:38:19.235Z,2.90
2018-06-28T07:40:47.611Z,3.10
2018-06-28T07:43:16.095Z,3.83
2018-06-28T07:45:44.421Z,3.00
2018-06-28T07:48:12.724Z,3.27
2018-06-28T07:50:41.059Z,2.73
2018-06-28T07:53:09.364Z,2.97
2018-06-28T07:55:39.747Z,3.03
2018-06-28T07:58:08.038Z,2.50
2018-06-28T08:00:36.351Z,2.97
2018-06-28T08:03:04.683Z,2.57
2018-06-28T08:05:32.991Z,2.77
2018-06-28T08:08:01.331Z,3.50
2018-06-28T08:10:29.676Z,3.13
2018-06-28T08:12:58.009Z,2.23
2018-06-28T08:15:26.319Z,3.00
2018-06-28T08:17:54.636Z,2.90
2018-06-28T08:20:26.154Z,2.73
2018-06-28T08:22:54.481Z,2.77
2018-06-28T08:25:22.895Z,2.37
2018-06-28T08:27:51.272Z,3.07
2018-06-28T08:30:19.760Z,3.77
2018-06-28T08:32:48.218Z,2.53
2018-06-28T08:35:16.547Z,4.00
2018-06-28T08:37:44.898Z,2.93
2018-06-28T08:40:13.211Z,2.60
2018-06-28T08:42:41.503Z,2.87
2018-06-28T08:45:09.877Z,2.30
2018-06-28T08:47:38.319Z,2.43
2018-06-28T08:50:06.800Z,2.57
2018-06-28T08:52:35.102Z,2.37
2018-06-28T08:55:03.499Z,2.40
2018-06-28T08:57:31.858Z,2.60
2018-06-28T09:00:00.161Z,2.70
2018-06-28T09:02:28.614Z,2.80
2018-06-28T09:04:56.915Z,2.00
2018-06-28T09:07:25.247Z,2.33
2018-06-28T09:09:53.542Z,2.00
2018-06-28T09:12:21.836Z,2.67
2018-06-28T09:14:50.131Z,2.50
2018-06-28T09:17:18.449Z,2.80
2018-06-28T09:19:46.740Z,2.57
2018-06-28T09:22:15.030Z,2.20
2018-06-28T09:24:43.293Z,2.40
2018-06-28T09:27:11.362Z,2.20
2018-06-28T09:29:39.650Z,2.50
2018-06-28T09:32:08.007Z,2.20
2018-06-28T09:34:36.288Z,2.43
2018-06-28T09:37:04.618Z,2.27
2018-06-28T09:39:32.909Z,2.50
2018-06-28T09:42:00.988Z,2.50
2018-06-28T09:44:29.259Z,2.10
2018-06-28T09:46:57.579Z,2.37
2018-06-28T09:49:25.864Z,2.00
2018-06-28T09:51:54.190Z,2.27
2018-06-28T09:54:22.462Z,2.10
2018-06-28T09:56:50.775Z,2.07
2018-06-28T09:59:19.203Z,2.10
2018-06-28T10:01:49.599Z,2.17
2018-06-28T10:04:17.959Z,2.40
2018-06-28T10:06:46.259Z,1.97
2018-06-28T10:09:14.544Z,2.67
2018-06-28T10:11:42.841Z,2.40
2018-06-28T10:14:11.175Z,2.40
2018-06-28T10:16:39.495Z,2.60
2018-06-28T10:19:07.582Z,2.20
2018-06-28T10:21:35.900Z,2.00
2018-06-28T10:24:04.315Z,2.70
2018-06-28T10:26:32.676Z,2.00
2018-06-28T10:29:00.967Z,2.60
2018-06-28T10:31:29.266Z,2.20
2018-06-28T10:33:57.579Z,2.40
2018-06-28T10:36:25.893Z,2.17
2018-06-28T10:38:54.215Z,2.30
2018-06-28T10:41:22.522Z,2.13
2018-06-28T10:43:50.795Z,1.90
2018-06-28T10:46:19.070Z,2.50
2018-06-28T10:48:47.331Z,2.20
2018-06-28T10:51:15.631Z,2.17
2018-06-28T10:53:43.998Z,2.60
2018-06-28T10:56:12.311Z,1.73
2018-06-28T10:58:40.610Z,2.10
2018-06-28T11:01:08.667Z,2.17
2018-06-28T11:03:36.947Z,1.90
2018-06-28T11:06:05.374Z,2.47
2018-06-28T11:08:34.111Z,1.97
2018-06-28T11:11:02.415Z,2.67
2018-06-28T11:13:30.719Z,1.80
2018-06-28T11:15:58.990Z,1.80
2018-06-28T11:18:27.329Z,2.50
2018-06-28T11:20:55.655Z,2.43
2018-06-28T11:23:23.983Z,1.70
2018-06-28T11:25:52.289Z,2.27
2018-06-28T11:28:20.625Z,1.73
2018-06-28T11:30:49.095Z,1.90
2018-06-28T11:33:17.403Z,2.30
2018-06-28T11:35:45.687Z,2.47
2018-06-28T11:38:14.104Z,2.33
2018-06-28T11:40:42.395Z,2.17
2018-06-28T11:43:10.874Z,2.00
2018-06-28T11:45:39.170Z,2.20
2018-06-28T11:48:07.547Z,2.20
2018-06-28T11:50:35.831Z,2.00
2018-06-28T11:53:04.135Z,2.30
2018-06-28T11:55:32.415Z,2.03
2018-06-28T11:58:00.719Z,2.43
2018-06-28T12:00:29.006Z,2.07
2018-06-28T12:02:57.314Z,1.90
2018-06-28T12:05:25.630Z,2.10
2018-06-28T12:07:53.934Z,2.37
2018-06-28T12:10:22.227Z,1.90
2018-06-28T12:12:50.567Z,2.30
2018-06-28T12:15:18.893Z,1.90
2018-06-28T12:17:47.214Z,2.10
2018-06-28T12:20:15.521Z,2.37
2018-06-28T12:22:43.819Z,1.80
2018-06-28T12:25:12.160Z,2.30
2018-06-28T12:27:40.456Z,2.27
2018-06-28T12:30:08.780Z,2.10
2018-06-28T12:32:37.094Z,2.90
2018-06-28T12:35:05.498Z,2.53
2018-06-28T12:37:33.815Z,2.30
2018-06-28T12:40:02.100Z,3.23
2018-06-28T12:42:30.432Z,2.30
2018-06-28T12:44:58.735Z,2.27
2018-06-28T12:48:31.211Z,2.57
2018-06-28T12:50:59.519Z,2.10
2018-06-28T12:53:27.823Z,2.47
2018-06-28T12:56:29.203Z,2.50
2018-06-28T12:58:58.961Z,2.30
2018-06-28T13:01:27.729Z,2.40
2018-06-28T13:03:56.495Z,2.80
2018-06-28T13:06:24.910Z,3.00
2018-06-28T13:08:54.032Z,2.77
2018-06-28T13:11:22.739Z,2.40
2018-06-28T13:13:51.060Z,2.17
2018-06-28T13:16:20.020Z,2.47
2018-06-28T13:18:48.893Z,2.40
2018-06-28T13:21:17.236Z,2.90
2018-06-28T13:23:45.525Z,3.23
2018-06-28T13:26:15.024Z,2.90
2018-06-28T13:28:43.945Z,2.57
2018-06-28T13:31:12.249Z,2.40
2018-06-28T13:33:40.630Z,2.03
2018-06-28T13:36:08.857Z,2.47
2018-06-28T13:38:37.285Z,2.20
2018-06-28T13:41:05.586Z,2.17
2018-06-28T13:43:33.791Z,2.40
2018-06-28T13:46:02.232Z,2.33
2018-06-28T13:48:30.595Z,2.47
2018-06-28T13:50:58.863Z,2.43
2018-06-28T13:53:27.159Z,2.60
2018-06-28T13:55:55.470Z,2.93
2018-06-28T13:58:23.899Z,2.40
2018-06-28T14:00:51.980Z,2.17
2018-06-28T14:03:20.399Z,2.47
2018-06-28T14:05:48.581Z,2.00
2018-06-28T14:08:16.902Z,2.87
2018-06-28T14:10:45.283Z,2.37
2018-06-28T14:13:13.603Z,2.27
2018-06-28T14:15:42.999Z,2.53
2018-06-28T14:18:11.290Z,2.57
2018-06-28T14:20:40.587Z,1.90
2018-06-28T14:23:08.916Z,2.20
2018-06-28T14:25:37.265Z,1.80
2018-06-28T14:28:06.580Z,1.80
2018-06-28T14:30:34.846Z,2.20
2018-06-28T14:33:03.156Z,2.63
2018-06-28T14:35:31.474Z,2.30
2018-06-28T14:37:59.819Z,2.63
2018-06-28T14:40:28.119Z,2.30
2018-06-28T14:42:56.430Z,2.50
2018-06-28T14:45:24.732Z,2.27
2018-06-28T14:47:55.190Z,2.20
2018-06-28T14:50:23.567Z,2.23
2018-06-28T14:52:52.352Z,2.50
2018-06-28T14:55:20.693Z,2.10
2018-06-28T14:57:50.010Z,2.30
2018-06-28T15:00:18.390Z,2.10
2018-06-28T15:02:46.666Z,2.00
2018-06-28T15:05:14.996Z,2.17
2018-06-28T15:07:43.283Z,2.47
2018-06-28T15:10:11.623Z,2.37
2018-06-28T15:12:40.076Z,1.90
2018-06-28T15:15:08.383Z,2.37
2018-06-28T15:17:36.694Z,2.30
2018-06-28T15:20:05.793Z,2.10
2018-06-28T15:22:34.122Z,1.97
2018-06-28T15:25:02.446Z,2.00
2018-06-28T15:27:30.848Z,2.20
2018-06-28T15:29:59.234Z,2.57
2018-06-28T15:32:27.707Z,2.43
2018-06-28T15:34:56.043Z,2.33
2018-06-28T15:37:24.355Z,2.30
2018-06-28T15:39:52.644Z,2.63
2018-06-28T15:42:20.736Z,1.70
2018-06-28T15:44:49.140Z,2.63
2018-06-28T15:47:17.427Z,2.20
2018-06-28T15:49:45.738Z,2.03
2018-06-28T15:52:14.043Z,1.83
2018-06-28T15:54:42.367Z,2.23
2018-06-28T15:57:10.987Z,2.17
2018-06-28T15:59:39.410Z,1.60
2018-06-28T16:02:08.655Z,2.27
2018-06-28T16:04:37.031Z,2.03
2018-06-28T16:07:05.631Z,1.90
2018-06-28T16:09:34.036Z,2.33
2018-06-28T16:12:02.326Z,1.80
2018-06-28T16:14:30.648Z,1.73
2018-06-28T16:16:58.931Z,1.87
2018-06-28T16:19:27.252Z,2.20
2018-06-28T16:21:55.540Z,2.93
2018-06-28T16:24:23.909Z,2.17
2018-06-28T16:26:52.172Z,1.97
2018-06-28T16:29:20.494Z,2.40
2018-06-28T16:31:48.959Z,2.50
2018-06-28T16:34:17.312Z,2.13
2018-06-28T16:36:45.740Z,2.37
2018-06-28T16:39:14.133Z,2.37
2018-06-28T16:41:43.154Z,2.60
2018-06-28T16:44:11.272Z,1.90
2018-06-28T16:46:39.954Z,2.17
2018-06-28T16:49:08.163Z,2.20
2018-06-28T16:51:36.587Z,2.30
2018-06-28T16:54:04.952Z,2.30
2018-06-28T16:56:33.231Z,2.10
2018-06-28T16:59:01.738Z,2.20
2018-06-28T17:01:30.053Z,2.40
2018-06-28T17:03:58.402Z,2.10
2018-06-28T17:06:26.695Z,2.53
2018-06-28T17:08:55.076Z,1.53
2018-06-28T17:11:23.507Z,2.50
2018-06-28T17:13:53.911Z,2.90
2018-06-28T17:16:22.211Z,2.67
2018-06-28T17:18:50.494Z,2.63
2018-06-28T17:21:19.819Z,2.77
2018-06-28T17:23:48.135Z,1.73
2018-06-28T17:26:24.825Z,14.60
2018-06-28T17:28:53.535Z,2.07
2018-06-28T17:31:21.852Z,2.30
2018-06-28T17:33:51.183Z,1.93
2018-06-28T17:36:22.505Z,2.00
2018-06-28T17:38:50.551Z,2.00
2018-06-28T17:41:18.831Z,2.00
2018-06-28T17:43:47.115Z,2.00
2018-06-28T17:46:15.519Z,2.00
2018-06-28T17:48:43.873Z,2.10
2018-06-28T17:51:12.182Z,2.70
2018-06-28T17:53:40.484Z,2.00
2018-06-28T17:56:08.951Z,2.93
2018-06-28T17:58:37.760Z,2.30
2018-06-28T18:01:06.079Z,2.60
2018-06-28T18:03:34.448Z,2.23
2018-06-28T18:06:02.865Z,2.10
2018-06-28T18:08:31.290Z,2.00
2018-06-28T18:10:59.652Z,2.00
2018-06-28T18:13:27.994Z,1.90
2018-06-28T18:15:56.326Z,1.90
2018-06-28T18:18:24.638Z,2.10
2018-06-28T18:20:53.029Z,2.40
2018-06-28T18:23:21.351Z,2.30
2018-06-28T18:25:49.684Z,2.23
2018-06-28T18:28:18.155Z,2.10
2018-06-28T18:30:46.466Z,1.87
2018-06-28T18:33:14.793Z,2.30
2018-06-28T18:35:43.114Z,2.20
2018-06-28T18:38:11.488Z,1.63
2018-06-28T18:40:39.823Z,2.63
2018-06-28T18:43:08.154Z,2.30
2018-06-28T18:45:36.491Z,2.27
2018-06-28T18:48:04.960Z,2.77
2018-06-28T18:50:33.397Z,2.40
2018-06-28T18:53:01.889Z,2.57
2018-06-28T18:55:30.254Z,2.00
2018-06-28T18:57:58.691Z,2.03
2018-06-28T19:00:27.084Z,1.83
2018-06-28T19:02:55.556Z,2.57
2018-06-28T19:05:23.904Z,2.90
2018-06-28T19:07:57.000Z,2.13
2018-06-28T19:10:36.986Z,2.40
2018-06-28T19:13:05.334Z,1.90
2018-06-28T19:15:39.215Z,2.63
2018-06-28T19:18:07.566Z,2.17
2018-06-28T19:20:35.895Z,2.27
2018-06-28T19:23:09.569Z,2.90
2018-06-28T19:25:37.871Z,2.60
2018-06-28T19:28:06.165Z,4.00
2018-06-28T19:30:39.944Z,4.30
2018-06-28T19:33:08.253Z,4.30
2018-06-28T19:35:36.550Z,3.07
2018-06-28T19:38:14.368Z,3.17
2018-06-28T19:40:48.495Z,3.10
2018-06-28T19:43:16.817Z,2.60
2018-06-28T19:45:45.115Z,2.70
2018-06-28T19:48:13.436Z,2.30
2018-06-28T19:50:47.034Z,2.70
2018-06-28T19:53:17.090Z,2.80
2018-06-28T19:55:45.581Z,2.20
2018-06-28T19:58:14.374Z,2.60
2018-06-28T20:00:47.991Z,3.07
2018-06-28T20:03:21.854Z,2.20
2018-06-28T20:05:50.258Z,2.40
2018-06-28T20:08:18.579Z,2.17
2018-06-28T20:10:47.019Z,2.80
2018-06-28T20:15:28.798Z,2.40
2018-06-28T20:18:03.429Z,2.53
2018-06-28T20:20:33.487Z,2.50
2018-06-28T20:23:01.807Z,2.57
2018-06-28T20:25:30.262Z,2.30
2018-06-28T20:28:04.100Z,2.50
2018-06-28T20:30:37.734Z,2.60
2018-06-28T20:33:11.406Z,2.60
2018-06-28T20:35:39.764Z,2.23
2018-06-28T20:38:08.219Z,3.07
2018-06-28T20:40:36.494Z,2.43
2018-06-28T20:43:04.843Z,2.97
2018-06-28T20:45:33.154Z,2.83
2018-06-28T20:48:01.465Z,2.97
2018-06-28T20:50:29.795Z,2.53
2018-06-28T20:52:58.154Z,2.40
2018-06-28T20:55:26.499Z,2.03
2018-06-28T20:57:54.892Z,2.10
2018-06-28T21:00:23.299Z,2.33
2018-06-28T21:02:51.644Z,2.73
2018-06-28T21:05:19.946Z,2.70
2018-06-28T21:07:48.321Z,2.97
2018-06-28T21:10:16.615Z,3.10
2018-06-28T21:12:44.959Z,2.70
2018-06-28T21:15:13.286Z,2.53
2018-06-28T21:17:41.651Z,2.70
2018-06-28T21:20:10.525Z,2.80
2018-06-28T21:22:39.001Z,2.70
2018-06-28T21:25:07.315Z,2.70
2018-06-28T21:27:35.663Z,2.80
2018-06-28T21:30:04.503Z,2.47
2018-06-28T21:32:32.815Z,3.00
2018-06-28T21:35:01.111Z,2.77
2018-06-28T21:37:29.751Z,3.10
2018-06-28T21:39:58.026Z,2.77
2018-06-28T21:42:26.375Z,3.17
2018-06-28T21:44:54.654Z,2.80
2018-06-28T21:47:22.983Z,2.60
2018-06-28T21:49:51.267Z,2.70
2018-06-28T21:52:19.553Z,2.60
2018-06-28T21:54:48.027Z,2.33
2018-06-28T21:57:16.347Z,2.60
2018-06-28T21:59:44.625Z,2.40
2018-06-28T22:02:12.924Z,3.10
2018-06-28T22:04:41.208Z,2.87
2018-06-28T22:07:09.543Z,3.27
2018-06-28T22:09:37.857Z,3.20
2018-06-28T22:12:06.187Z,3.00
2018-06-28T22:14:34.530Z,2.80
2018-06-28T22:17:02.836Z,3.00
2018-06-28T22:19:31.108Z,3.10
2018-06-28T22:21:59.402Z,2.73
2018-06-28T22:24:27.707Z,3.47
2018-06-28T22:26:55.987Z,2.90
2018-06-28T22:29:24.275Z,3.70
2018-06-28T22:31:52.562Z,3.47
2018-06-28T22:34:20.604Z,2.70
2018-06-28T22:36:48.874Z,3.07
2018-06-28T22:39:17.151Z,3.10
2018-06-28T22:41:45.418Z,2.50
2018-06-28T22:44:13.703Z,3.30
2018-06-28T22:46:41.987Z,3.30
2018-06-28T22:49:10.290Z,3.00
2018-06-28T22:51:38.558Z,2.90
2018-06-28T22:54:06.983Z,2.67
2018-06-28T22:56:35.253Z,3.30
2018-06-28T22:59:03.578Z,2.70
2018-06-28T23:01:31.852Z,2.93
2018-06-28T23:04:00.188Z,3.07
2018-06-28T23:06:28.506Z,2.90
2018-06-28T23:08:56.877Z,3.07
2018-06-28T23:11:25.130Z,3.50
2018-06-28T23:13:53.458Z,3.57
2018-06-28T23:16:21.796Z,3.17
2018-06-28T23:18:50.115Z,3.73
2018-06-28T23:21:18.407Z,3.50
2018-06-28T23:23:46.711Z,3.40
2018-06-28T23:26:15.006Z,4.17
2018-06-28T23:28:43.316Z,3.50
2018-06-28T23:31:11.595Z,3.97
2018-06-28T23:33:39.646Z,3.47
2018-06-28T23:36:07.926Z,3.50
2018-06-28T23:38:36.332Z,3.33
2018-06-28T23:41:04.631Z,3.60
2018-06-28T23:43:32.938Z,4.00
2018-06-28T23:46:01.243Z,4.30
2018-06-28T23:48:29.517Z,4.30
2018-06-28T23:50:57.803Z,3.47
2018-06-28T23:53:26.095Z,3.53
2018-06-28T23:58:26.635Z,3.10
